.
WxDataArchive / Data Records for 2012-02-08
2012-02-07 February 2012 2012-02-09

Data Records for Wednesday, 08 February 2012

Time	Temp	Chill	HIndex	Humid	Dewpt	 Wind 	HiWind	WindDir	Rain 	Barom 
-----	----	-----	------	-----	-----	------	------	-------	-----	----- 
00:00	30.9	30.9	30.9	90	28.3	1	7	112	0.00	30.336 
00:05	30.7	30.7	30.7	89	27.8	1	4	90	0.00	30.336 
00:10	30.7	30.7	30.7	88	27.6	1	7	90	0.00	30.336 
00:15	30.6	30.6	30.6	88	27.5	1	5	90	0.00	30.336 
00:20	30.6	30.6	30.6	87	27.2	1	4	338	0.00	30.336 
00:25	30.6	30.6	30.6	86	26.9	0	4	112	0.00	30.336 
00:30	30.7	30.7	30.7	85	26.7	1	4	112	0.00	30.339 
00:35	30.7	30.7	30.7	85	26.7	1	3	112	0.00	30.339 
00:40	30.7	30.7	30.7	84	26.4	1	5	90	0.00	30.339 
00:45	30.7	30.7	30.7	84	26.4	1	6	112	0.00	30.338 
00:50	30.7	30.7	30.7	84	26.4	1	3	112	0.00	30.338 
00:55	30.7	30.7	30.7	84	26.4	1	4	90	0.00	30.338 
01:00	30.7	30.7	30.7	84	26.4	1	4	112	0.00	30.336 
01:05	30.7	30.7	30.7	83	26.2	1	3	112	0.00	30.336 
01:10	30.7	30.7	30.7	83	26.2	0	3	68	0.00	30.336 
01:15	30.7	30.7	30.7	83	26.2	1	3	68	0.00	30.336 
01:20	30.6	30.6	30.6	83	26.1	0	2	68	0.00	30.336 
01:25	30.6	30.6	30.6	82	25.8	0	2	68	0.00	30.336 
01:30	30.4	30.4	30.4	82	25.6	1	4	45	0.00	30.335 
01:35	30.4	30.4	30.4	82	25.6	1	5	68	0.00	30.335 
01:40	30.3	30.3	30.3	81	25.2	1	5	68	0.00	30.335 
01:45	30.3	30.3	30.3	81	25.2	1	4	112	0.00	30.334 
01:50	30.3	30.3	30.3	81	25.2	1	5	90	0.00	30.334 
01:55	30.3	30.3	30.3	81	25.2	2	7	90	0.00	30.334 
02:00	30.1	30.1	30.1	82	25.3	1	4	22	0.00	30.331 
02:05	30.1	30.1	30.1	82	25.3	1	3	90	0.00	30.331 
02:10	30.1	30.1	30.1	82	25.3	1	3	90	0.00	30.331 
02:15	30.0	30.0	30.0	83	25.5	0	2	90	0.00	30.329 
02:20	30.0	30.0	30.0	82	25.2	1	3	90	0.00	30.329 
02:25	29.8	29.8	29.8	81	24.7	1	3	90	0.00	30.329 
02:30	29.7	29.7	29.7	81	24.6	0	3	90	0.00	30.337 
02:35	29.7	29.7	29.7	80	24.3	1	3	90	0.00	30.337 
02:40	29.7	29.7	29.7	80	24.3	1	4	90	0.00	30.337 
02:45	29.7	29.7	29.7	81	24.6	1	4	90	0.00	30.335 
02:50	29.7	29.7	29.7	81	24.6	1	3	90	0.00	30.335 
02:55	29.7	29.7	29.7	81	24.6	1	4	90	0.00	30.335 
03:00	29.5	29.5	29.5	80	24.1	1	4	112	0.00	30.333 
03:05	29.5	29.5	29.5	80	24.1	1	3	45	0.00	30.333 
03:10	29.5	29.5	29.5	80	24.1	1	3	112	0.00	30.333 
03:15	29.5	29.5	29.5	80	24.1	0	1	112	0.00	30.334 
03:20	29.4	29.4	29.4	80	24.0	0	2	112	0.00	30.334 
03:25	29.4	29.4	29.4	81	24.3	0	1	112	0.00	30.334 
03:30	29.4	29.4	29.4	81	24.3	0	2	112	0.00	30.329 
03:35	29.4	29.4	29.4	81	24.3	0	2	112	0.00	30.329 
03:40	29.4	29.4	29.4	81	24.3	0	2	112	0.00	30.329 
03:45	29.4	29.4	29.4	81	24.3	1	3	112	0.00	30.327 
03:50	29.4	29.4	29.4	81	24.3	0	3	90	0.00	30.327 
03:55	29.4	29.4	29.4	81	24.3	1	3	90	0.00	30.327 
04:00	29.4	29.4	29.4	81	24.3	0	3	45	0.00	30.328 
04:05	29.3	29.3	29.3	81	24.2	2	4	90	0.00	30.328 
04:10	29.3	29.3	29.3	81	24.2	0	2	90	0.00	30.328 
04:15	29.3	29.3	29.3	81	24.2	0	2	90	0.00	30.329 
04:20	29.3	29.3	29.3	81	24.2	0	2	90	0.00	30.329 
04:25	29.1	29.1	29.1	81	24.0	0	2	90	0.00	30.329 
04:30	29.0	29.0	29.0	81	23.9	1	4	90	0.00	30.327 
04:35	29.0	29.0	29.0	81	23.9	0	2	90	0.00	30.327 
04:40	28.8	28.8	28.8	80	23.4	1	3	22	0.00	30.327 
04:45	28.8	28.8	28.8	80	23.4	1	4	112	0.00	30.329 
04:50	28.7	28.7	28.7	79	23.0	1	3	112	0.00	30.329 
04:55	28.7	28.7	28.7	80	23.3	1	3	112	0.00	30.329 
05:00	28.7	28.7	28.7	80	23.3	1	3	112	0.00	30.328 
05:05	28.5	28.5	28.5	80	23.1	1	4	90	0.00	30.328 
05:10	28.5	28.5	28.5	80	23.1	0	3	90	0.00	30.328 
05:15	28.5	28.5	28.5	80	23.1	0	3	90	0.00	30.328 
05:20	28.4	28.4	28.4	80	23.0	1	4	112	0.00	30.328 
05:25	28.4	28.4	28.4	79	22.7	1	4	112	0.00	30.328 
05:30	28.2	28.2	28.2	79	22.5	1	4	112	0.00	30.332 
05:35	28.2	28.2	28.2	79	22.5	1	4	112	0.00	30.332 
05:40	28.2	28.2	28.2	79	22.5	1	3	112	0.00	30.332 
05:45	28.2	28.2	28.2	79	22.5	2	5	90	0.00	30.330 
05:50	28.2	28.2	28.2	78	22.2	1	4	90	0.00	30.330 
05:55	28.1	28.1	28.1	78	22.1	1	3	90	0.00	30.330 
06:00	28.1	28.1	28.1	78	22.1	0	3	90	0.00	30.333 
06:05	28.1	28.1	28.1	79	22.4	0	1	90	0.00	30.333 
06:10	28.2	28.2	28.2	79	22.5	0	1	90	0.00	30.333 
06:15	28.1	28.1	28.1	80	22.7	0	3	90	0.00	30.329 
06:20	28.1	28.1	28.1	80	22.7	0	1	90	0.00	30.329 
06:25	27.9	27.9	27.9	80	22.5	0	0	---	0.00	30.329 
06:30	27.9	27.9	27.9	80	22.5	0	2	90	0.00	30.328 
06:35	27.8	27.8	27.8	80	22.4	0	2	90	0.00	30.328 
06:40	27.8	27.8	27.8	80	22.4	0	1	90	0.00	30.328 
06:45	27.6	27.6	27.6	80	22.3	0	3	90	0.00	30.326 
06:50	27.6	27.6	27.6	80	22.3	0	2	90	0.00	30.326 
06:55	27.5	27.5	27.5	80	22.2	0	2	90	0.00	30.326 
07:00	27.5	27.5	27.5	80	22.2	0	2	90	0.00	30.325 
07:05	27.5	27.5	27.5	80	22.2	0	1	90	0.00	30.325 
07:10	27.5	27.5	27.5	80	22.2	1	2	90	0.00	30.325 
07:15	27.5	27.5	27.5	80	22.2	0	1	90	0.00	30.326 
07:20	27.3	27.3	27.3	80	22.0	0	0	---	0.00	30.326 
07:25	27.3	27.3	27.3	80	22.0	0	1	90	0.00	30.326 
07:30	27.3	27.3	27.3	80	22.0	0	0	---	0.00	30.328 
07:35	27.3	27.3	27.3	80	22.0	0	1	90	0.00	30.328 
07:40	27.2	27.2	27.2	80	21.9	0	0	---	0.00	30.328 
07:45	27.2	27.2	27.2	80	21.9	0	0	---	0.00	30.328 
07:50	27.2	27.2	27.2	80	21.9	0	0	---	0.00	30.328 
07:55	27.0	27.0	27.0	80	21.7	0	0	---	0.00	30.328 
08:00	27.0	27.0	27.0	80	21.7	0	0	---	0.00	30.330 
08:05	27.0	27.0	27.0	80	21.7	0	0	---	0.00	30.330 
08:10	26.9	26.9	26.9	80	21.6	0	0	---	0.00	30.330 
08:15	26.9	26.9	26.9	80	21.6	0	0	---	0.00	30.339 
08:20	26.9	26.9	26.9	80	21.6	0	0	---	0.00	30.339 
08:25	26.9	26.9	26.9	80	21.6	0	1	90	0.00	30.339 
08:30	26.7	26.7	26.7	80	21.4	0	1	90	0.00	30.344 
08:35	26.7	26.7	26.7	79	21.1	0	1	90	0.00	30.344 
08:40	26.7	26.7	26.7	79	21.1	0	1	90	0.00	30.344 
08:45	26.7	26.7	26.7	79	21.1	0	0	---	0.00	30.348 
08:50	26.7	26.7	26.7	78	20.8	0	0	---	0.00	30.348 
08:55	26.7	26.7	26.7	78	20.8	0	1	90	0.00	30.348 
09:00	26.9	26.9	26.9	78	21.0	0	1	90	0.00	30.352 
09:05	27.0	27.0	27.0	77	20.8	0	3	90	0.00	30.352 
09:10	27.2	27.2	27.2	77	21.0	0	2	270	0.00	30.352 
09:15	27.5	27.5	27.5	76	20.9	0	2	270	0.00	30.351 
09:20	27.6	27.6	27.6	75	20.7	0	3	270	0.00	30.351 
09:25	27.8	27.8	27.8	75	20.9	0	2	270	0.00	30.351 
09:30	28.2	28.2	28.2	75	21.3	0	1	270	0.00	30.353 
09:35	28.7	28.7	28.7	73	21.2	0	2	270	0.00	30.353 
09:40	29.0	29.0	29.0	71	20.8	0	1	270	0.00	30.353 
09:45	28.8	28.8	28.8	70	20.3	0	2	270	0.00	30.355 
09:50	28.7	28.7	28.7	70	20.2	0	2	270	0.00	30.355 
09:55	28.7	28.7	28.7	70	20.2	0	2	270	0.00	30.355 
10:00	28.8	28.8	28.8	70	20.3	0	1	270	0.00	30.355 
10:05	28.8	28.8	28.8	70	20.3	0	2	270	0.00	30.355 
10:10	29.0	29.0	29.0	70	20.5	0	1	270	0.00	30.355 
10:15	29.3	29.3	29.3	69	20.4	0	1	315	0.00	30.355 
10:20	29.5	29.5	29.5	69	20.6	0	3	315	0.00	30.355 
10:25	29.7	29.7	29.7	66	19.8	0	2	315	0.00	30.355 
10:30	29.8	29.8	29.8	65	19.5	0	1	315	0.00	30.357 
10:35	29.8	29.8	29.8	64	19.1	0	2	315	0.00	30.357 
10:40	29.5	29.5	29.5	61	17.7	1	3	270	0.00	30.357 
10:45	29.5	29.5	29.5	61	17.7	0	2	270	0.00	30.354 
10:50	29.7	29.7	29.7	60	17.5	0	1	270	0.00	30.354 
10:55	29.7	29.7	29.7	57	16.4	1	3	248	0.00	30.354 
11:00	30.0	30.0	30.0	56	16.2	0	2	248	0.00	30.352 
11:05	30.3	30.3	30.3	55	16.1	0	2	248	0.00	30.352 
11:10	30.6	30.6	30.6	54	16.0	1	2	270	0.00	30.352 
11:15	31.0	31.0	31.0	55	16.8	0	3	270	0.00	30.351 
11:20	31.2	31.2	31.2	50	14.8	0	2	270	0.00	30.351 
11:25	31.0	31.0	31.0	48	13.6	1	5	292	0.00	30.351 
11:30	31.2	31.2	31.2	49	14.3	1	3	292	0.00	30.349 
11:35	31.2	31.2	31.2	50	14.8	1	3	270	0.00	30.349 
11:40	31.3	31.3	31.3	48	13.9	0	2	270	0.00	30.349 
11:45	31.6	31.6	31.6	49	14.7	1	3	270	0.00	30.347 
11:50	31.8	31.8	31.8	50	15.3	1	3	270	0.00	30.347 
11:55	31.8	31.8	31.8	49	14.8	1	4	338	0.00	30.347 
12:00	31.9	31.9	31.9	49	14.9	1	4	338	0.00	30.342 
12:05	31.9	31.9	31.9	49	14.9	1	4	45	0.00	30.342 
12:10	32.2	32.2	32.2	51	16.1	1	4	315	0.00	30.342 
12:15	32.7	32.7	32.7	53	17.5	1	4	338	0.00	30.335 
12:20	32.8	32.8	32.8	50	16.2	1	3	338	0.00	30.335 
12:25	32.8	32.8	32.8	51	16.7	1	4	270	0.00	30.335 
12:30	32.9	32.9	32.9	49	15.9	1	3	338	0.00	30.328 
12:35	32.9	32.9	32.9	51	16.8	1	3	45	0.00	30.328 
12:40	33.1	33.1	33.1	51	17.0	1	4	315	0.00	30.328 
12:45	33.4	33.4	33.4	51	17.2	1	4	292	0.00	30.323 
12:50	33.4	33.4	33.4	51	17.2	1	4	292	0.00	30.323 
12:55	33.4	33.4	33.4	50	16.8	1	3	292	0.00	30.323 
13:00	33.7	33.7	33.7	52	18.0	1	2	315	0.00	30.315 
13:05	33.8	33.8	33.8	50	17.2	1	2	315	0.00	30.315 
13:10	33.7	33.7	33.7	50	17.1	2	5	338	0.00	30.315 
13:15	33.7	33.7	33.7	50	17.1	2	5	270	0.00	30.308 
13:20	34.0	34.0	34.0	50	17.3	1	3	315	0.00	30.308 
13:25	34.1	34.1	34.1	50	17.4	1	6	292	0.00	30.308 
13:30	34.3	34.3	34.3	51	18.1	1	3	338	0.00	30.307 
13:35	34.4	34.4	34.4	51	18.2	1	2	0	0.00	30.307 
13:40	34.7	34.7	34.7	52	18.9	1	2	68	0.00	30.307 
13:45	34.9	34.9	34.9	51	18.6	1	4	315	0.00	30.305 
13:50	34.7	34.7	34.7	50	18.0	1	4	338	0.00	30.305 
13:55	34.9	34.9	34.9	50	18.2	2	3	270	0.00	30.305 
14:00	34.9	34.9	34.9	50	18.2	2	5	248	0.00	30.300 
14:05	34.9	34.9	34.9	50	18.2	1	4	315	0.00	30.300 
14:10	35.3	35.3	35.3	52	19.5	1	3	338	0.00	30.300 
14:15	35.8	35.8	35.8	50	19.0	2	5	248	0.00	30.291 
14:20	35.5	35.5	35.5	50	18.7	1	4	338	0.00	30.291 
14:25	35.6	35.6	35.6	50	18.8	2	4	315	0.00	30.291 
14:30	35.8	35.8	35.8	51	19.5	1	3	270	0.00	30.287 
14:35	35.9	35.9	35.9	52	20.0	1	4	270	0.00	30.287 
14:40	36.0	36.0	36.0	51	19.6	2	7	338	0.00	30.287 
14:45	36.0	36.0	36.0	52	20.1	1	4	338	0.00	30.277 
14:50	36.2	36.2	36.2	51	19.8	2	4	270	0.00	30.277 
14:55	35.8	35.8	35.8	50	19.0	3	7	270	0.00	30.277 
15:00	35.0	35.0	35.0	50	18.3	1	3	315	0.00	30.280 
15:05	34.4	34.4	34.4	50	17.7	1	4	338	0.00	30.280 
15:10	34.1	34.1	34.1	51	17.9	1	5	338	0.00	30.280 
15:15	34.6	34.6	34.6	53	19.2	1	3	292	0.00	30.280 
15:20	34.6	34.6	34.6	52	18.8	1	3	292	0.00	30.280 
15:25	34.9	34.9	34.9	52	19.1	1	4	270	0.00	30.280 
15:30	35.3	35.3	35.3	53	19.9	1	3	270	0.00	30.279 
15:35	35.6	35.6	35.6	52	19.7	1	3	315	0.00	30.279 
15:40	35.9	35.9	35.9	51	19.6	2	5	338	0.00	30.279 
15:45	36.2	36.2	36.2	51	19.8	2	6	270	0.00	30.281 
15:50	36.2	36.2	36.2	49	18.9	2	4	292	0.00	30.281 
15:55	36.3	36.3	36.3	51	19.9	2	5	315	0.00	30.281 
16:00	36.2	36.2	36.2	51	19.8	2	4	270	0.00	30.278 
16:05	36.2	36.2	36.2	49	18.9	2	4	270	0.00	30.278 
16:10	36.0	36.0	36.0	50	19.2	1	3	315	0.00	30.278 
16:15	36.0	36.0	36.0	50	19.2	2	4	315	0.00	30.281 
16:20	35.5	35.5	35.5	51	19.2	1	3	315	0.00	30.281 
16:25	34.9	34.9	34.9	52	19.1	1	4	292	0.00	30.281 
16:30	34.7	34.7	34.7	53	19.3	1	6	338	0.00	30.284 
16:35	34.9	34.9	34.9	54	20.0	1	4	315	0.00	30.284 
16:40	34.9	34.9	34.9	54	20.0	1	3	338	0.00	30.284 
16:45	34.9	34.9	34.9	52	19.1	1	3	338	0.00	30.283 
16:50	34.6	34.6	34.6	53	19.2	2	5	315	0.00	30.283 
16:55	34.4	34.4	34.4	54	19.5	1	2	270	0.00	30.283 
17:00	34.6	34.6	34.6	56	20.5	1	3	270	0.00	30.285 
17:05	34.9	34.9	34.9	55	20.4	2	4	292	0.00	30.285 
17:10	35.0	35.0	35.0	53	19.6	2	4	248	0.00	30.285 
17:15	34.9	34.9	34.9	53	19.5	2	5	270	0.00	30.286 
17:20	34.7	34.7	34.7	54	19.8	2	4	270	0.00	30.286 
17:25	34.4	34.4	34.4	54	19.5	2	4	338	0.00	30.286 
17:30	34.0	34.0	34.0	55	19.6	2	4	315	0.00	30.288 
17:35	33.8	33.8	33.8	55	19.4	2	5	270	0.00	30.288 
17:40	33.4	33.4	33.4	56	19.4	1	3	315	0.00	30.288 
17:45	33.2	33.2	33.2	57	19.6	1	3	315	0.00	30.290 
17:50	32.9	32.9	32.9	57	19.4	0	1	315	0.00	30.290 
17:55	32.8	32.8	32.8	58	19.7	1	3	315	0.00	30.290 
18:00	32.7	32.7	32.7	58	19.6	1	3	270	0.00	30.292 
18:05	32.5	32.5	32.5	58	19.4	1	3	270	0.00	30.292 
18:10	32.4	32.4	32.4	58	19.3	1	2	315	0.00	30.292 
18:15	32.1	32.1	32.1	59	19.4	0	1	315	0.00	30.293 
18:20	31.9	31.9	31.9	59	19.2	0	1	315	0.00	30.293 
18:25	31.6	31.6	31.6	59	18.9	0	1	315	0.00	30.293 
18:30	31.5	31.5	31.5	60	19.2	0	1	315	0.00	30.292 
18:35	31.3	31.3	31.3	61	19.4	0	0	---	0.00	30.292 
18:40	31.0	31.0	31.0	61	19.1	0	0	---	0.00	30.292 
18:45	30.7	30.7	30.7	62	19.2	0	0	---	0.00	30.292 
18:50	30.6	30.6	30.6	63	19.5	0	0	---	0.00	30.292 
18:55	30.6	30.6	30.6	63	19.5	0	2	315	0.00	30.292 
19:00	30.7	30.7	30.7	64	20.0	0	1	315	0.00	30.294 
19:05	30.9	30.9	30.9	64	20.2	1	2	315	0.00	30.294 
19:10	31.0	31.0	31.0	63	19.9	1	2	315	0.00	30.294 
19:15	31.2	31.2	31.2	63	20.1	1	2	315	0.00	30.296 
19:20	31.2	31.2	31.2	63	20.1	1	2	315	0.00	30.296 
19:25	31.0	31.0	31.0	63	19.9	0	2	315	0.00	30.296 
19:30	31.0	31.0	31.0	63	19.9	1	2	315	0.00	30.298 
19:35	30.9	30.9	30.9	62	19.4	1	3	315	0.00	30.298 
19:40	30.7	30.7	30.7	63	19.6	0	1	315	0.00	30.298 
19:45	30.6	30.6	30.6	63	19.5	0	1	315	0.00	30.299 
19:50	30.3	30.3	30.3	63	19.2	0	1	315	0.00	30.299 
19:55	30.1	30.1	30.1	64	19.4	0	2	315	0.00	30.299 
20:00	30.0	30.0	30.0	65	19.7	1	2	315	0.00	30.306 
20:05	29.8	29.8	29.8	65	19.5	0	2	315	0.00	30.306 
20:10	29.7	29.7	29.7	65	19.4	0	1	315	0.00	30.306 
20:15	29.5	29.5	29.5	66	19.6	1	2	315	0.00	30.307 
20:20	29.4	29.4	29.4	66	19.5	0	1	315	0.00	30.307 
20:25	29.3	29.3	29.3	66	19.4	0	1	315	0.00	30.307 
20:30	29.1	29.1	29.1	67	19.5	1	2	315	0.00	30.309 
20:35	29.1	29.1	29.1	67	19.5	0	2	315	0.00	30.309 
20:40	29.0	29.0	29.0	68	19.8	1	3	315	0.00	30.309 
20:45	29.0	29.0	29.0	68	19.8	0	2	315	0.00	30.311 
20:50	28.8	28.8	28.8	68	19.6	0	2	315	0.00	30.311 
20:55	28.7	28.7	28.7	69	19.8	0	1	315	0.00	30.311 
21:00	28.5	28.5	28.5	69	19.6	0	1	315	0.00	30.312 
21:05	28.2	28.2	28.2	69	19.4	0	1	315	0.00	30.312 
21:10	28.1	28.1	28.1	70	19.6	0	0	---	0.00	30.312 
21:15	27.8	27.8	27.8	70	19.3	0	0	---	0.00	30.311 
21:20	27.6	27.6	27.6	71	19.4	0	1	315	0.00	30.311 
21:25	27.5	27.5	27.5	71	19.4	0	0	---	0.00	30.311 
21:30	27.3	27.3	27.3	72	19.5	0	1	315	0.00	30.310 
21:35	27.3	27.3	27.3	73	19.8	0	2	315	0.00	30.310 
21:40	27.3	27.3	27.3	73	19.8	0	1	315	0.00	30.310 
21:45	27.5	27.5	27.5	72	19.7	0	1	315	0.00	30.309 
21:50	27.5	27.5	27.5	72	19.7	0	1	315	0.00	30.309 
21:55	27.5	27.5	27.5	72	19.7	0	1	315	0.00	30.309 
22:00	27.5	27.5	27.5	72	19.7	0	1	315	0.00	30.309 
22:05	27.3	27.3	27.3	72	19.5	0	1	315	0.00	30.309 
22:10	27.3	27.3	27.3	72	19.5	0	1	315	0.00	30.309 
22:15	27.2	27.2	27.2	72	19.4	0	1	315	0.00	30.311 
22:20	27.0	27.0	27.0	72	19.2	0	1	315	0.00	30.311 
22:25	27.0	27.0	27.0	72	19.2	0	0	---	0.00	30.311 
22:30	26.9	26.9	26.9	73	19.4	0	0	---	0.00	30.312 
22:35	26.7	26.7	26.7	73	19.2	0	1	315	0.00	30.312 
22:40	26.7	26.7	26.7	73	19.2	0	0	---	0.00	30.312 
22:45	26.7	26.7	26.7	73	19.2	0	0	---	0.00	30.312 
22:50	26.6	26.6	26.6	73	19.1	0	1	315	0.00	30.312 
22:55	26.4	26.4	26.4	74	19.3	0	0	---	0.00	30.312 
23:00	26.3	26.3	26.3	74	19.2	0	0	---	0.00	30.309 
23:05	26.1	26.1	26.1	74	19.0	0	0	---	0.00	30.309 
23:10	25.8	25.8	25.8	74	18.7	0	0	---	0.00	30.309 
23:15	25.7	25.7	25.7	75	18.9	0	1	315	0.00	30.301 
23:20	25.6	25.6	25.6	76	19.1	0	0	---	0.00	30.301 
23:25	25.4	25.4	25.4	76	18.9	0	0	---	0.00	30.301 
23:30	25.3	25.3	25.3	77	19.1	0	0	---	0.00	30.301 
23:35	25.4	25.4	25.4	77	19.2	0	1	315	0.00	30.301 
23:40	25.4	25.4	25.4	77	19.2	0	1	315	0.00	30.301 
23:45	25.4	25.4	25.4	77	19.2	0	1	315	0.00	30.302 
23:50	25.6	25.6	25.6	77	19.4	0	2	315	0.00	30.302 
23:55	25.6	25.6	25.6	77	19.4	0	1	315	0.00	30.302 

CoCoRaHS
IN-AL-39
A2 Web Hosting
Creative Commons License
GoDaddy
search engine by freefind advanced

loaded 2018-11-17 05:42:14 • last modified 2010-11-18 10:43:29
Privacy PolicyDisclaimer
• wx.awcolley.com is powered by PmWiki v.2002016 •
• all content (unless otherwise noted) © 2018 A W Colley